sensor_id;sensor_type;location;lat;lon;timestamp;pressure;altitude;pressure_sealevel;temperature;humidity
7614;BME280;3848;42.016;23.098;2023-12-20T00:02:00;97633.59;;;0.23;100.00
7614;BME280;3848;42.016;23.098;2023-12-20T00:04:28;97654.91;;;0.36;100.00
7614;BME280;3848;42.016;23.098;2023-12-20T00:06:55;97656.38;;;0.30;100.00
7614;BME280;3848;42.016;23.098;2023-12-20T00:09:40;97648.75;;;0.27;100.00
7614;BME280;3848;42.016;23.098;2023-12-20T00:12:26;97652.78;;;0.24;100.00
7614;BME280;3848;42.016;23.098;2023-12-20T00:14:53;97650.16;;;0.21;100.00
7614;BME280;3848;42.016;23.098;2023-12-20T00:17:20;97633.31;;;0.17;100.00
7614;BME280;3848;42.016;23.098;2023-12-20T00:19:47;97645.41;;;0.27;100.00
7614;BME280;3848;42.016;23.098;2023-12-20T00:22:14;97648.03;;;0.30;100.00
7614;BME280;3848;42.016;23.098;2023-12-20T00:24:42;97638.59;;;0.23;100.00
7614;BME280;3848;42.016;23.098;2023-12-20T00:27:09;97641.88;;;0.22;100.00
7614;BME280;3848;42.016;23.098;2023-12-20T00:29:36;97641.09;;;0.23;100.00
7614;BME280;3848;42.016;23.098;2023-12-20T00:32:03;97632.59;;;0.19;100.00
7614;BME280;3848;42.016;23.098;2023-12-20T00:34:30;97637.97;;;0.28;100.00
7614;BME280;3848;42.016;23.098;2023-12-20T00:36:57;97581.06;;;0.01;100.00
7614;BME280;3848;42.016;23.098;2023-12-20T00:39:24;97633.03;;;0.30;100.00
7614;BME280;3848;42.016;23.098;2023-12-20T00:41:53;97636.78;;;0.20;100.00
7614;BME280;3848;42.016;23.098;2023-12-20T00:44:20;97639.00;;;0.13;100.00
7614;BME280;3848;42.016;23.098;2023-12-20T00:46:47;97632.28;;;0.12;100.00
7614;BME280;3848;42.016;23.098;2023-12-20T00:49:14;97626.88;;;0.01;100.00
7614;BME280;3848;42.016;23.098;2023-12-20T00:51:41;97633.13;;;-0.09;100.00
7614;BME280;3848;42.016;23.098;2023-12-20T00:54:08;97632.94;;;-0.13;100.00
7614;BME280;3848;42.016;23.098;2023-12-20T00:56:35;97619.19;;;-0.23;100.00
7614;BME280;3848;42.016;23.098;2023-12-20T00:59:03;97621.56;;;-0.26;100.00
7614;BME280;3848;42.016;23.098;2023-12-20T01:01:30;97617.31;;;-0.28;100.00
7614;BME280;3848;42.016;23.098;2023-12-20T01:03:58;97624.75;;;-0.30;100.00
7614;BME280;3848;42.016;23.098;2023-12-20T01:06:25;97604.63;;;-0.33;100.00
7614;BME280;3848;42.016;23.098;2023-12-20T01:08:52;97602.94;;;-0.34;100.00
7614;BME280;3848;42.016;23.098;2023-12-20T01:11:19;97607.81;;;-0.37;100.00
7614;BME280;3848;42.016;23.098;2023-12-20T01:13:46;97602.16;;;-0.33;100.00
7614;BME280;3848;42.016;23.098;2023-12-20T01:16:15;97586.91;;;-0.39;100.00
7614;BME280;3848;42.016;23.098;2023-12-20T01:18:41;97585.06;;;-0.43;100.00
7614;BME280;3848;42.016;23.098;2023-12-20T01:21:09;97582.19;;;-0.52;100.00
7614;BME280;3848;42.016;23.098;2023-12-20T01:23:36;97585.47;;;-0.53;100.00
7614;BME280;3848;42.016;23.098;2023-12-20T01:26:03;97582.91;;;-0.55;100.00
7614;BME280;3848;42.016;23.098;2023-12-20T01:28:31;97575.44;;;-0.55;100.00
7614;BME280;3848;42.016;23.098;2023-12-20T01:30:58;97576.28;;;-0.54;100.00
7614;BME280;3848;42.016;23.098;2023-12-20T01:33:26;97565.00;;;-0.66;100.00
7614;BME280;3848;42.016;23.098;2023-12-20T01:35:53;97575.19;;;-0.61;100.00
7614;BME280;3848;42.016;23.098;2023-12-20T01:38:20;97567.53;;;-0.64;100.00
7614;BME280;3848;42.016;23.098;2023-12-20T01:40:47;97556.66;;;-0.66;100.00
7614;BME280;3848;42.016;23.098;2023-12-20T01:43:14;97547.34;;;-0.70;100.00
7614;BME280;3848;42.016;23.098;2023-12-20T01:45:41;97547.28;;;-0.72;100.00
7614;BME280;3848;42.016;23.098;2023-12-20T01:48:09;97544.06;;;-0.69;100.00
7614;BME280;3848;42.016;23.098;2023-12-20T01:50:38;97551.59;;;-0.68;100.00
7614;BME280;3848;42.016;23.098;2023-12-20T01:53:07;97546.72;;;-0.65;100.00
7614;BME280;3848;42.016;23.098;2023-12-20T01:55:36;97535.31;;;-0.59;100.00
7614;BME280;3848;42.016;23.098;2023-12-20T01:58:05;97521.00;;;-0.64;100.00
7614;BME280;3848;42.016;23.098;2023-12-20T02:00:33;97523.09;;;-0.53;100.00
7614;BME280;3848;42.016;23.098;2023-12-20T02:03:01;97514.09;;;-0.50;100.00
7614;BME280;3848;42.016;23.098;2023-12-20T02:05:29;97523.41;;;-0.46;100.00
7614;BME280;3848;42.016;23.098;2023-12-20T02:07:58;97523.59;;;-0.41;100.00
7614;BME280;3848;42.016;23.098;2023-12-20T02:10:25;97517.09;;;-0.38;100.00
7614;BME280;3848;42.016;23.098;2023-12-20T02:12:52;97504.84;;;-0.32;100.00
7614;BME280;3848;42.016;23.098;2023-12-20T02:15:19;97502.34;;;-0.32;100.00
7614;BME280;3848;42.016;23.098;2023-12-20T02:17:47;97497.34;;;-0.32;100.00
7614;BME280;3848;42.016;23.098;2023-12-20T02:20:14;97498.72;;;-0.40;100.00
7614;BME280;3848;42.016;23.098;2023-12-20T02:22:42;97493.09;;;-0.34;100.00
7614;BME280;3848;42.016;23.098;2023-12-20T02:25:09;97488.22;;;-0.31;100.00
7614;BME280;3848;42.016;23.098;2023-12-20T02:27:36;97489.25;;;-0.26;100.00
7614;BME280;3848;42.016;23.098;2023-12-20T02:30:05;97490.78;;;-0.29;100.00
7614;BME280;3848;42.016;23.098;2023-12-20T02:32:32;97490.59;;;-0.34;100.00
7614;BME280;3848;42.016;23.098;2023-12-20T02:34:59;97482.72;;;-0.43;100.00
7614;BME280;3848;42.016;23.098;2023-12-20T02:37:26;97475.19;;;-0.45;100.00
7614;BME280;3848;42.016;23.098;2023-12-20T02:39:54;97467.47;;;-0.51;100.00
7614;BME280;3848;42.016;23.098;2023-12-20T02:42:21;97477.38;;;-0.52;100.00
7614;BME280;3848;42.016;23.098;2023-12-20T02:44:48;97468.81;;;-0.59;100.00
7614;BME280;3848;42.016;23.098;2023-12-20T02:47:15;97472.09;;;-0.60;100.00
7614;BME280;3848;42.016;23.098;2023-12-20T02:49:42;97475.56;;;-0.56;100.00
7614;BME280;3848;42.016;23.098;2023-12-20T02:52:09;97472.94;;;-0.59;100.00
7614;BME280;3848;42.016;23.098;2023-12-20T02:54:36;97427.28;;;-0.78;100.00
7614;BME280;3848;42.016;23.098;2023-12-20T02:57:05;97456.91;;;-0.65;100.00
7614;BME280;3848;42.016;23.098;2023-12-20T02:59:31;97451.81;;;-0.68;100.00
7614;BME280;3848;42.016;23.098;2023-12-20T03:01:58;97436.84;;;-0.68;100.00
7614;BME280;3848;42.016;23.098;2023-12-20T03:04:25;97457.91;;;-0.61;100.00
7614;BME280;3848;42.016;23.098;2023-12-20T03:06:52;97448.47;;;-0.68;100.00
7614;BME280;3848;42.016;23.098;2023-12-20T03:09:19;97453.63;;;-0.64;100.00
7614;BME280;3848;42.016;23.098;2023-12-20T03:11:46;97450.22;;;-0.66;100.00
7614;BME280;3848;42.016;23.098;2023-12-20T03:14:15;97399.09;;;-0.96;100.00
7614;BME280;3848;42.016;23.098;2023-12-20T03:16:42;97449.63;;;-0.60;100.00
7614;BME280;3848;42.016;23.098;2023-12-20T03:19:13;97448.13;;;-0.56;100.00
7614;BME280;3848;42.016;23.098;2023-12-20T03:21:40;97439.50;;;-0.63;100.00
7614;BME280;3848;42.016;23.098;2023-12-20T03:24:07;97435.63;;;-0.56;100.00
7614;BME280;3848;42.016;23.098;2023-12-20T03:26:34;97426.41;;;-0.59;100.00
7614;BME280;3848;42.016;23.098;2023-12-20T03:29:01;97434.06;;;-0.54;100.00
7614;BME280;3848;42.016;23.098;2023-12-20T03:31:29;97439.91;;;-0.54;100.00
7614;BME280;3848;42.016;23.098;2023-12-20T03:33:56;97446.34;;;-0.59;100.00
7614;BME280;3848;42.016;23.098;2023-12-20T03:36:23;97440.34;;;-0.63;100.00
7614;BME280;3848;42.016;23.098;2023-12-20T03:38:50;97439.59;;;-0.62;100.00
7614;BME280;3848;42.016;23.098;2023-12-20T03:41:17;97446.28;;;-0.60;100.00
7614;BME280;3848;42.016;23.098;2023-12-20T03:43:44;97445.34;;;-0.63;100.00
7614;BME280;3848;42.016;23.098;2023-12-20T03:46:11;97446.03;;;-0.67;100.00
7614;BME280;3848;42.016;23.098;2023-12-20T03:48:39;97441.03;;;-0.67;100.00
7614;BME280;3848;42.016;23.098;2023-12-20T03:51:06;97422.97;;;-0.82;100.00
7614;BME280;3848;42.016;23.098;2023-12-20T03:53:33;97438.25;;;-0.74;100.00
7614;BME280;3848;42.016;23.098;2023-12-20T03:56:00;97394.06;;;-0.98;100.00
7614;BME280;3848;42.016;23.098;2023-12-20T03:58:27;97439.75;;;-0.78;100.00
7614;BME280;3848;42.016;23.098;2023-12-20T04:00:54;97440.28;;;-0.85;100.00
7614;BME280;3848;42.016;23.098;2023-12-20T04:03:21;97436.69;;;-0.92;100.00
7614;BME280;3848;42.016;23.098;2023-12-20T04:05:50;97421.56;;;-0.96;100.00
7614;BME280;3848;42.016;23.098;2023-12-20T04:08:16;97426.59;;;-0.95;100.00
7614;BME280;3848;42.016;23.098;2023-12-20T04:10:43;97416.19;;;-0.84;100.00
7614;BME280;3848;42.016;23.098;2023-12-20T04:13:10;97421.50;;;-0.77;100.00
7614;BME280;3848;42.016;23.098;2023-12-20T04:15:37;97410.75;;;-0.76;100.00
7614;BME280;3848;42.016;23.098;2023-12-20T04:18:05;97415.34;;;-0.64;100.00
7614;BME280;3848;42.016;23.098;2023-12-20T04:20:32;97411.84;;;-0.69;100.00
7614;BME280;3848;42.016;23.098;2023-12-20T04:23:00;97409.09;;;-0.75;100.00
7614;BME280;3848;42.016;23.098;2023-12-20T04:25:27;97399.91;;;-0.76;100.00
7614;BME280;3848;42.016;23.098;2023-12-20T04:27:54;97382.69;;;-0.91;100.00
7614;BME280;3848;42.016;23.098;2023-12-20T04:30:21;97333.03;;;-1.27;100.00
7614;BME280;3848;42.016;23.098;2023-12-20T04:32:48;97403.66;;;-0.86;100.00
7614;BME280;3848;42.016;23.098;2023-12-20T04:35:15;97391.06;;;-0.89;100.00
7614;BME280;3848;42.016;23.098;2023-12-20T04:37:42;97394.59;;;-0.84;100.00
7614;BME280;3848;42.016;23.098;2023-12-20T04:40:11;97394.75;;;-0.81;100.00
7614;BME280;3848;42.016;23.098;2023-12-20T04:42:38;97389.38;;;-0.90;100.00
7614;BME280;3848;42.016;23.098;2023-12-20T04:45:06;97389.25;;;-0.93;100.00
7614;BME280;3848;42.016;23.098;2023-12-20T04:47:34;97370.16;;;-0.93;100.00
7614;BME280;3848;42.016;23.098;2023-12-20T04:50:01;97333.78;;;-1.08;100.00
7614;BME280;3848;42.016;23.098;2023-12-20T04:52:28;97374.00;;;-0.80;100.00
7614;BME280;3848;42.016;23.098;2023-12-20T04:54:55;97380.88;;;-0.74;100.00
7614;BME280;3848;42.016;23.098;2023-12-20T04:57:23;97370.72;;;-0.79;100.00
7614;BME280;3848;42.016;23.098;2023-12-20T04:59:50;97377.03;;;-0.66;100.00
7614;BME280;3848;42.016;23.098;2023-12-20T05:02:17;97371.97;;;-0.68;100.00
7614;BME280;3848;42.016;23.098;2023-12-20T05:04:44;97375.88;;;-0.74;100.00
7614;BME280;3848;42.016;23.098;2023-12-20T05:07:12;97374.06;;;-0.78;100.00
7614;BME280;3848;42.016;23.098;2023-12-20T05:09:39;97374.00;;;-0.80;100.00
7614;BME280;3848;42.016;23.098;2023-12-20T05:12:07;97375.66;;;-0.80;100.00
7614;BME280;3848;42.016;23.098;2023-12-20T05:14:35;97367.53;;;-0.75;100.00
7614;BME280;3848;42.016;23.098;2023-12-20T05:17:02;97365.78;;;-0.77;100.00
7614;BME280;3848;42.016;23.098;2023-12-20T05:19:29;97371.91;;;-0.69;100.00
7614;BME280;3848;42.016;23.098;2023-12-20T05:21:56;97363.91;;;-0.83;100.00
7614;BME280;3848;42.016;23.098;2023-12-20T05:24:23;97365.72;;;-1.00;100.00
7614;BME280;3848;42.016;23.098;2023-12-20T05:26:50;97363.22;;;-1.20;100.00
7614;BME280;3848;42.016;23.098;2023-12-20T05:29:18;97360.31;;;-1.30;100.00
7614;BME280;3848;42.016;23.098;2023-12-20T05:31:46;97353.34;;;-1.58;100.00
7614;BME280;3848;42.016;23.098;2023-12-20T05:34:13;97337.47;;;-1.60;100.00
7614;BME280;3848;42.016;23.098;2023-12-20T05:36:40;97355.81;;;-1.38;100.00
7614;BME280;3848;42.016;23.098;2023-12-20T05:39:07;97355.34;;;-1.30;100.00
7614;BME280;3848;42.016;23.098;2023-12-20T05:41:34;97355.50;;;-1.25;100.00
7614;BME280;3848;42.016;23.098;2023-12-20T05:44:01;97354.19;;;-1.38;100.00
7614;BME280;3848;42.016;23.098;2023-12-20T05:46:28;97348.66;;;-1.31;100.00
7614;BME280;3848;42.016;23.098;2023-12-20T05:48:56;97342.19;;;-1.26;100.00
7614;BME280;3848;42.016;23.098;2023-12-20T05:51:23;97332.69;;;-1.15;100.00
7614;BME280;3848;42.016;23.098;2023-12-20T05:53:51;97336.66;;;-0.99;100.00
7614;BME280;3848;42.016;23.098;2023-12-20T05:56:18;97329.06;;;-1.02;100.00
7614;BME280;3848;42.016;23.098;2023-12-20T05:58:45;97344.00;;;-1.02;100.00
7614;BME280;3848;42.016;23.098;2023-12-20T06:01:14;97336.25;;;-1.08;100.00
7614;BME280;3848;42.016;23.098;2023-12-20T06:03:42;97335.72;;;-1.22;100.00
7614;BME280;3848;42.016;23.098;2023-12-20T06:06:11;97330.47;;;-1.28;100.00
7614;BME280;3848;42.016;23.098;2023-12-20T06:08:38;97340.78;;;-1.20;100.00
7614;BME280;3848;42.016;23.098;2023-12-20T06:11:05;97292.81;;;-1.55;100.00
7614;BME280;3848;42.016;23.098;2023-12-20T06:13:32;97335.25;;;-1.13;100.00
7614;BME280;3848;42.016;23.098;2023-12-20T06:16:03;97342.84;;;-1.10;100.00
7614;BME280;3848;42.016;23.098;2023-12-20T06:18:30;97331.47;;;-1.25;100.00
7614;BME280;3848;42.016;23.098;2023-12-20T06:20:57;97346.91;;;-1.12;100.00
7614;BME280;3848;42.016;23.098;2023-12-20T06:23:25;97324.91;;;-1.23;100.00
7614;BME280;3848;42.016;23.098;2023-12-20T06:25:53;97342.09;;;-1.08;100.00
7614;BME280;3848;42.016;23.098;2023-12-20T06:28:20;97342.03;;;-1.09;100.00
7614;BME280;3848;42.016;23.098;2023-12-20T06:30:47;97327.69;;;-1.15;100.00
7614;BME280;3848;42.016;23.098;2023-12-20T06:33:15;97336.88;;;-1.14;100.00
7614;BME280;3848;42.016;23.098;2023-12-20T06:35:44;97327.88;;;-1.10;100.00
7614;BME280;3848;42.016;23.098;2023-12-20T06:38:11;97322.66;;;-1.16;100.00
7614;BME280;3848;42.016;23.098;2023-12-20T06:40:39;97328.78;;;-1.08;100.00
7614;BME280;3848;42.016;23.098;2023-12-20T06:43:08;97333.25;;;-1.01;100.00
7614;BME280;3848;42.016;23.098;2023-12-20T06:45:35;97310.31;;;-1.13;100.00
7614;BME280;3848;42.016;23.098;2023-12-20T06:48:02;97326.00;;;-0.95;100.00
7614;BME280;3848;42.016;23.098;2023-12-20T06:50:29;97321.91;;;-0.93;100.00
7614;BME280;3848;42.016;23.098;2023-12-20T06:52:56;97317.16;;;-0.87;100.00
7614;BME280;3848;42.016;23.098;2023-12-20T06:55:23;97316.63;;;-0.80;100.00
7614;BME280;3848;42.016;23.098;2023-12-20T06:57:52;97308.75;;;-0.68;100.00
7614;BME280;3848;42.016;23.098;2023-12-20T07:00:19;97303.13;;;-0.63;100.00
7614;BME280;3848;42.016;23.098;2023-12-20T07:02:46;97300.00;;;-0.58;100.00
7614;BME280;3848;42.016;23.098;2023-12-20T07:05:16;97298.84;;;-0.44;100.00
7614;BME280;3848;42.016;23.098;2023-12-20T07:07:46;97301.28;;;-0.46;100.00
7614;BME280;3848;42.016;23.098;2023-12-20T07:10:14;97294.91;;;-0.39;100.00
7614;BME280;3848;42.016;23.098;2023-12-20T07:12:41;97286.66;;;-0.37;100.00
7614;BME280;3848;42.016;23.098;2023-12-20T07:15:10;97286.19;;;-0.26;100.00
7614;BME280;3848;42.016;23.098;2023-12-20T07:17:37;97282.84;;;-0.27;100.00
7614;BME280;3848;42.016;23.098;2023-12-20T07:20:07;97286.53;;;-0.17;100.00
7614;BME280;3848;42.016;23.098;2023-12-20T07:22:36;97272.06;;;-0.26;100.00
7614;BME280;3848;42.016;23.098;2023-12-20T07:25:04;97253.97;;;-0.43;100.00
7614;BME280;3848;42.016;23.098;2023-12-20T07:27:31;97269.81;;;-0.42;100.00
7614;BME280;3848;42.016;23.098;2023-12-20T07:29:58;97263.25;;;-0.40;100.00
7614;BME280;3848;42.016;23.098;2023-12-20T07:32:26;97265.84;;;-0.37;100.00
7614;BME280;3848;42.016;23.098;2023-12-20T07:34:53;97274.25;;;-0.35;100.00
7614;BME280;3848;42.016;23.098;2023-12-20T07:37:20;97260.97;;;-0.34;100.00
7614;BME280;3848;42.016;23.098;2023-12-20T07:39:47;97265.97;;;-0.34;100.00
7614;BME280;3848;42.016;23.098;2023-12-20T07:42:14;97264.56;;;-0.26;100.00
7614;BME280;3848;42.016;23.098;2023-12-20T07:44:41;97270.56;;;-0.21;100.00
7614;BME280;3848;42.016;23.098;2023-12-20T07:47:08;97263.66;;;-0.28;100.00
7614;BME280;3848;42.016;23.098;2023-12-20T07:49:39;97258.47;;;-0.34;100.00
7614;BME280;3848;42.016;23.098;2023-12-20T07:52:06;97266.97;;;-0.29;100.00
7614;BME280;3848;42.016;23.098;2023-12-20T07:54:33;97261.28;;;-0.25;100.00
7614;BME280;3848;42.016;23.098;2023-12-20T07:57:00;97256.69;;;-0.14;100.00
7614;BME280;3848;42.016;23.098;2023-12-20T07:59:27;97258.44;;;-0.12;100.00
7614;BME280;3848;42.016;23.098;2023-12-20T08:01:54;97239.94;;;-0.17;100.00
7614;BME280;3848;42.016;23.098;2023-12-20T08:04:21;97257.09;;;-0.02;100.00
7614;BME280;3848;42.016;23.098;2023-12-20T08:06:50;97248.88;;;0.01;100.00
7614;BME280;3848;42.016;23.098;2023-12-20T08:09:17;97246.75;;;0.11;100.00
7614;BME280;3848;42.016;23.098;2023-12-20T08:11:45;97251.59;;;0.07;100.00
7614;BME280;3848;42.016;23.098;2023-12-20T08:14:12;97244.28;;;0.13;100.00
7614;BME280;3848;42.016;23.098;2023-12-20T08:16:39;97246.00;;;0.14;100.00
7614;BME280;3848;42.016;23.098;2023-12-20T08:19:06;97242.00;;;0.19;100.00
7614;BME280;3848;42.016;23.098;2023-12-20T08:21:33;97244.50;;;0.19;100.00
7614;BME280;3848;42.016;23.098;2023-12-20T08:24:02;97242.75;;;0.16;100.00
7614;BME280;3848;42.016;23.098;2023-12-20T08:26:29;97249.25;;;0.11;100.00
7614;BME280;3848;42.016;23.098;2023-12-20T08:28:56;97244.25;;;0.11;100.00
7614;BME280;3848;42.016;23.098;2023-12-20T08:31:22;97237.44;;;0.07;100.00
7614;BME280;3848;42.016;23.098;2023-12-20T08:33:50;97234.19;;;0.10;100.00
7614;BME280;3848;42.016;23.098;2023-12-20T08:36:19;97232.31;;;0.28;100.00
7614;BME280;3848;42.016;23.098;2023-12-20T08:38:47;97224.22;;;0.35;100.00
7614;BME280;3848;42.016;23.098;2023-12-20T08:41:15;97232.72;;;0.40;100.00
7614;BME280;3848;42.016;23.098;2023-12-20T08:43:42;97220.41;;;0.45;100.00
7614;BME280;3848;42.016;23.098;2023-12-20T08:46:09;97224.81;;;0.53;100.00
7614;BME280;3848;42.016;23.098;2023-12-20T08:48:37;97217.50;;;0.59;100.00
7614;BME280;3848;42.016;23.098;2023-12-20T08:51:04;97220.63;;;0.52;100.00
7614;BME280;3848;42.016;23.098;2023-12-20T08:53:32;97205.06;;;0.61;100.00
7614;BME280;3848;42.016;23.098;2023-12-20T08:56:00;97206.13;;;0.68;100.00
7614;BME280;3848;42.016;23.098;2023-12-20T08:58:29;97202.09;;;0.73;100.00
7614;BME280;3848;42.016;23.098;2023-12-20T09:00:56;97193.41;;;0.61;100.00
7614;BME280;3848;42.016;23.098;2023-12-20T09:03:23;97191.00;;;0.63;100.00
7614;BME280;3848;42.016;23.098;2023-12-20T09:05:50;97191.00;;;0.63;100.00
7614;BME280;3848;42.016;23.098;2023-12-20T09:08:17;97188.56;;;0.66;100.00
7614;BME280;3848;42.016;23.098;2023-12-20T09:10:44;97179.38;;;0.65;100.00
7614;BME280;3848;42.016;23.098;2023-12-20T09:13:11;97179.53;;;0.70;100.00
7614;BME280;3848;42.016;23.098;2023-12-20T09:15:40;97180.22;;;0.66;100.00
7614;BME280;3848;42.016;23.098;2023-12-20T09:18:07;97175.00;;;0.59;100.00
7614;BME280;3848;42.016;23.098;2023-12-20T09:20:34;97169.06;;;0.56;100.00
7614;BME280;3848;42.016;23.098;2023-12-20T09:23:01;97155.63;;;0.52;100.00
7614;BME280;3848;42.016;23.098;2023-12-20T09:25:28;97160.03;;;0.59;100.00
7614;BME280;3848;42.016;23.098;2023-12-20T09:27:56;97156.84;;;0.64;100.00
7614;BME280;3848;42.016;23.098;2023-12-20T09:30:23;97148.22;;;0.55;100.00
7614;BME280;3848;42.016;23.098;2023-12-20T09:32:52;97147.47;;;0.58;100.00
7614;BME280;3848;42.016;23.098;2023-12-20T09:35:19;97090.59;;;0.22;100.00
7614;BME280;3848;42.016;23.098;2023-12-20T09:37:46;97134.88;;;0.55;100.00
7614;BME280;3848;42.016;23.098;2023-12-20T09:40:13;97133.31;;;0.58;100.00
7614;BME280;3848;42.016;23.098;2023-12-20T09:42:48;97127.81;;;0.69;100.00
7614;BME280;3848;42.016;23.098;2023-12-20T09:45:20;97121.22;;;0.71;100.00
7614;BME280;3848;42.016;23.098;2023-12-20T09:47:47;97117.19;;;0.76;100.00
7614;BME280;3848;42.016;23.098;2023-12-20T09:50:18;97112.44;;;0.83;100.00
7614;BME280;3848;42.016;23.098;2023-12-20T09:52:49;97099.97;;;0.85;100.00
7614;BME280;3848;42.016;23.098;2023-12-20T09:55:17;97097.34;;;0.82;100.00
7614;BME280;3848;42.016;23.098;2023-12-20T09:57:45;97078.72;;;0.71;100.00
7614;BME280;3848;42.016;23.098;2023-12-20T10:00:13;97082.06;;;0.71;100.00
7614;BME280;3848;42.016;23.098;2023-12-20T10:02:46;97069.22;;;0.60;100.00
7614;BME280;3848;42.016;23.098;2023-12-20T10:05:18;97056.94;;;0.67;100.00
7614;BME280;3848;42.016;23.098;2023-12-20T10:07:46;97064.75;;;0.79;100.00
7614;BME280;3848;42.016;23.098;2023-12-20T10:10:14;97014.88;;;0.53;100.00
7614;BME280;3848;42.016;23.098;2023-12-20T10:13:01;97047.19;;;0.76;100.00
7614;BME280;3848;42.016;23.098;2023-12-20T10:15:28;97047.25;;;0.79;100.00
7614;BME280;3848;42.016;23.098;2023-12-20T10:17:56;97033.06;;;0.78;100.00
7614;BME280;3848;42.016;23.098;2023-12-20T10:20:25;97035.75;;;0.84;100.00
7614;BME280;3848;42.016;23.098;2023-12-20T10:22:54;97018.91;;;0.78;100.00
7614;BME280;3848;42.016;23.098;2023-12-20T10:25:25;97024.19;;;0.87;100.00
7614;BME280;3848;42.016;23.098;2023-12-20T10:28:11;97021.69;;;0.87;100.00
7614;BME280;3848;42.016;23.098;2023-12-20T10:30:38;96998.94;;;0.80;100.00
7614;BME280;3848;42.016;23.098;2023-12-20T10:33:06;96962.41;;;0.55;100.00
7614;BME280;3848;42.016;23.098;2023-12-20T10:35:35;96996.94;;;0.67;100.00
7614;BME280;3848;42.016;23.098;2023-12-20T10:38:04;96989.09;;;0.56;100.00
7614;BME280;3848;42.016;23.098;2023-12-20T10:40:34;96983.31;;;0.57;100.00
7614;BME280;3848;42.016;23.098;2023-12-20T10:43:05;96977.56;;;0.61;100.00
7614;BME280;3848;42.016;23.098;2023-12-20T10:45:34;96970.31;;;0.69;100.00
7614;BME280;3848;42.016;23.098;2023-12-20T10:48:02;96950.16;;;0.63;100.00
7614;BME280;3848;42.016;23.098;2023-12-20T10:50:29;96943.63;;;0.68;100.00
7614;BME280;3848;42.016;23.098;2023-12-20T10:52:58;96902.34;;;0.52;100.00
7614;BME280;3848;42.016;23.098;2023-12-20T10:55:26;96948.00;;;0.76;100.00
7614;BME280;3848;42.016;23.098;2023-12-20T10:57:57;96951.47;;;0.81;100.00
7614;BME280;3848;42.016;23.098;2023-12-20T11:00:25;96948.38;;;0.90;100.00
7614;BME280;3848;42.016;23.098;2023-12-20T11:02:53;96938.50;;;0.95;100.00
7614;BME280;3848;42.016;23.098;2023-12-20T11:05:32;96933.72;;;1.04;100.00
7614;BME280;3848;42.016;23.098;2023-12-20T11:08:08;96919.22;;;0.90;100.00
7614;BME280;3848;42.016;23.098;2023-12-20T11:10:43;96926.16;;;1.02;100.00
7614;BME280;3848;42.016;23.098;2023-12-20T11:13:19;96924.47;;;1.01;100.00
7614;BME280;3848;42.016;23.098;2023-12-20T11:15:47;96908.41;;;0.91;100.00
7614;BME280;3848;42.016;23.098;2023-12-20T11:18:14;96921.06;;;0.98;100.00
7614;BME280;3848;42.016;23.098;2023-12-20T11:20:42;96909.41;;;0.98;100.00
7614;BME280;3848;42.016;23.098;2023-12-20T11:23:11;96907.94;;;1.05;100.00
7614;BME280;3848;42.016;23.098;2023-12-20T11:25:47;96898.94;;;1.13;100.00
7614;BME280;3848;42.016;23.098;2023-12-20T11:28:14;96894.19;;;1.23;100.00
7614;BME280;3848;42.016;23.098;2023-12-20T11:30:48;96896.84;;;1.30;100.00
7614;BME280;3848;42.016;23.098;2023-12-20T11:33:16;96897.72;;;0.97;100.00
7614;BME280;3848;42.016;23.098;2023-12-20T11:35:45;96880.47;;;0.75;100.00
7614;BME280;3848;42.016;23.098;2023-12-20T11:38:14;96882.94;;;0.73;100.00
7614;BME280;3848;42.016;23.098;2023-12-20T11:40:42;96884.63;;;0.74;100.00
7614;BME280;3848;42.016;23.098;2023-12-20T11:43:10;96868.41;;;0.60;100.00
7614;BME280;3848;42.016;23.098;2023-12-20T11:45:37;96873.81;;;0.75;100.00
7614;BME280;3848;42.016;23.098;2023-12-20T11:48:05;96859.72;;;0.46;100.00
7614;BME280;3848;42.016;23.098;2023-12-20T11:50:33;96861.75;;;0.60;100.00
7614;BME280;3848;42.016;23.098;2023-12-20T11:53:00;96855.47;;;0.75;100.00
7614;BME280;3848;42.016;23.098;2023-12-20T11:55:28;96852.09;;;0.73;100.00
7614;BME280;3848;42.016;23.098;2023-12-20T11:57:56;96846.84;;;0.64;100.00
7614;BME280;3848;42.016;23.098;2023-12-20T12:00:24;96831.56;;;0.53;100.00
7614;BME280;3848;42.016;23.098;2023-12-20T12:02:58;96835.25;;;0.66;100.00
7614;BME280;3848;42.016;23.098;2023-12-20T12:05:28;96827.19;;;0.77;100.00
7614;BME280;3848;42.016;23.098;2023-12-20T12:07:58;96814.91;;;0.85;100.00
7614;BME280;3848;42.016;23.098;2023-12-20T12:10:25;96815.03;;;0.91;100.00
7614;BME280;3848;42.016;23.098;2023-12-20T12:12:53;96809.41;;;1.01;100.00
7614;BME280;3848;42.016;23.098;2023-12-20T12:15:24;96802.59;;;0.94;100.00
7614;BME280;3848;42.016;23.098;2023-12-20T12:18:24;96775.75;;;0.87;100.00
7614;BME280;3848;42.016;23.098;2023-12-20T12:21:31;96672.16;;;0.07;100.00
7614;BME280;3848;42.016;23.098;2023-12-20T12:24:23;96802.63;;;0.96;100.00
7614;BME280;3848;42.016;23.098;2023-12-20T12:26:51;96800.69;;;0.84;100.00
7614;BME280;3848;42.016;23.098;2023-12-20T12:29:19;96794.66;;;0.76;100.00
7614;BME280;3848;42.016;23.098;2023-12-20T12:31:46;96787.03;;;0.71;100.00
7614;BME280;3848;42.016;23.098;2023-12-20T12:34:13;96779.66;;;0.76;100.00
7614;BME280;3848;42.016;23.098;2023-12-20T12:36:41;96789.22;;;0.92;100.00
7614;BME280;3848;42.016;23.098;2023-12-20T12:39:08;96781.09;;;1.02;100.00
7614;BME280;3848;42.016;23.098;2023-12-20T13:53:59;96706.56;;;0.51;100.00
7614;BME280;3848;42.016;23.098;2023-12-20T13:56:34;96693.56;;;0.65;100.00
7614;BME280;3848;42.016;23.098;2023-12-20T13:59:01;96703.47;;;0.61;100.00
7614;BME280;3848;42.016;23.098;2023-12-20T14:01:28;96708.84;;;0.77;100.00
7614;BME280;3848;42.016;23.098;2023-12-20T14:03:55;96712.50;;;0.91;100.00
7614;BME280;3848;42.016;23.098;2023-12-20T14:06:21;96708.50;;;0.99;100.00
7614;BME280;3848;42.016;23.098;2023-12-20T14:08:48;96708.75;;;1.10;100.00
7614;BME280;3848;42.016;23.098;2023-12-20T14:11:17;96703.06;;;1.17;100.00
7614;BME280;3848;42.016;23.098;2023-12-20T14:13:45;96710.44;;;1.11;100.00
7614;BME280;3848;42.016;23.098;2023-12-20T14:16:12;96713.59;;;1.04;100.00
7614;BME280;3848;42.016;23.098;2023-12-20T14:18:40;96720.44;;;1.11;100.00
7614;BME280;3848;42.016;23.098;2023-12-20T14:21:14;96712.22;;;1.16;100.00
7614;BME280;3848;42.016;23.098;2023-12-20T14:23:41;96711.63;;;1.27;100.00